FlightSource - Aviation Photo Database

World Wide Airport Lookup


Search by ICAO
Or
Search by City

FlightSource.ca - Aviation Photo Database - Tokachi Airport Information
Airport Identification
Name: Tokachi Airport
ICAO: RJCT
IATA:
Airport Location
City:
Region: 1
Country: Japan
Continent: AS
Latitude: 42.8905
Longitude: 143.158
Airport Information
Type: Medium Airport
Elevation: 281 Feet ASL
Flight Status: RJCT
More Info: RJCT
Airport Weather    
Metar: RJCT 220141Z VRB02KT 9999 FEW040 SCT100 M01/M09 Q1020 RMK 2CU040 3AC100 A3013
TAF:


Advertisement